sensor_id;sensor_type;location;lat;lon;timestamp;P1;durP1;ratioP1;P2;durP2;ratioP2
70303;SDS011;57712;48.752;11.348;2023-03-01T00:01:30;23.17;;;10.80;;
70303;SDS011;57712;48.752;11.348;2023-03-01T00:03:58;22.60;;;10.15;;
70303;SDS011;57712;48.752;11.348;2023-03-01T00:06:26;21.10;;;10.60;;
70303;SDS011;57712;48.752;11.348;2023-03-01T00:08:54;22.30;;;11.43;;
70303;SDS011;57712;48.752;11.348;2023-03-01T00:11:22;21.50;;;10.55;;
70303;SDS011;57712;48.752;11.348;2023-03-01T00:13:54;23.75;;;10.82;;
70303;SDS011;57712;48.752;11.348;2023-03-01T00:16:26;21.60;;;11.00;;
70303;SDS011;57712;48.752;11.348;2023-03-01T00:18:55;25.10;;;10.48;;
70303;SDS011;57712;48.752;11.348;2023-03-01T00:21:23;22.40;;;11.10;;
70303;SDS011;57712;48.752;11.348;2023-03-01T00:23:50;22.63;;;11.00;;
70303;SDS011;57712;48.752;11.348;2023-03-01T00:26:17;22.63;;;11.27;;
70303;SDS011;57712;48.752;11.348;2023-03-01T00:28:45;24.20;;;11.45;;
70303;SDS011;57712;48.752;11.348;2023-03-01T00:31:13;23.38;;;10.77;;
70303;SDS011;57712;48.752;11.348;2023-03-01T00:33:42;24.67;;;11.83;;
70303;SDS011;57712;48.752;11.348;2023-03-01T00:36:09;24.20;;;11.63;;
70303;SDS011;57712;48.752;11.348;2023-03-01T00:38:38;23.55;;;10.95;;
70303;SDS011;57712;48.752;11.348;2023-03-01T00:41:07;22.15;;;10.82;;
70303;SDS011;57712;48.752;11.348;2023-03-01T00:43:35;23.98;;;11.02;;
70303;SDS011;57712;48.752;11.348;2023-03-01T00:46:06;23.60;;;11.37;;
70303;SDS011;57712;48.752;11.348;2023-03-01T00:48:35;21.45;;;11.43;;
70303;SDS011;57712;48.752;11.348;2023-03-01T00:51:06;22.35;;;10.57;;
70303;SDS011;57712;48.752;11.348;2023-03-01T00:53:35;21.90;;;10.75;;
70303;SDS011;57712;48.752;11.348;2023-03-01T00:56:02;21.67;;;10.52;;
70303;SDS011;57712;48.752;11.348;2023-03-01T00:58:30;21.47;;;9.77;;
70303;SDS011;57712;48.752;11.348;2023-03-01T01:00:57;21.75;;;10.90;;
70303;SDS011;57712;48.752;11.348;2023-03-01T01:03:24;20.80;;;9.90;;
70303;SDS011;57712;48.752;11.348;2023-03-01T01:05:53;21.77;;;10.80;;
70303;SDS011;57712;48.752;11.348;2023-03-01T01:08:20;21.48;;;11.05;;
70303;SDS011;57712;48.752;11.348;2023-03-01T01:10:46;22.07;;;10.23;;
70303;SDS011;57712;48.752;11.348;2023-03-01T01:13:13;22.00;;;10.73;;
70303;SDS011;57712;48.752;11.348;2023-03-01T01:15:40;21.33;;;10.63;;
70303;SDS011;57712;48.752;11.348;2023-03-01T01:18:07;23.50;;;11.38;;
70303;SDS011;57712;48.752;11.348;2023-03-01T01:20:34;23.35;;;10.95;;
70303;SDS011;57712;48.752;11.348;2023-03-01T01:23:04;22.30;;;11.23;;
70303;SDS011;57712;48.752;11.348;2023-03-01T01:25:34;21.10;;;11.35;;
70303;SDS011;57712;48.752;11.348;2023-03-01T01:28:02;21.67;;;10.98;;
70303;SDS011;57712;48.752;11.348;2023-03-01T01:30:29;22.17;;;10.68;;
70303;SDS011;57712;48.752;11.348;2023-03-01T01:32:55;23.20;;;10.95;;
70303;SDS011;57712;48.752;11.348;2023-03-01T01:35:22;22.00;;;10.80;;
70303;SDS011;57712;48.752;11.348;2023-03-01T01:37:48;22.90;;;10.85;;
70303;SDS011;57712;48.752;11.348;2023-03-01T01:40:15;23.15;;;11.38;;
70303;SDS011;57712;48.752;11.348;2023-03-01T01:42:42;21.73;;;10.40;;
70303;SDS011;57712;48.752;11.348;2023-03-01T01:48:02;24.27;;;10.13;;
70303;SDS011;57712;48.752;11.348;2023-03-01T01:50:33;22.08;;;10.40;;
70303;SDS011;57712;48.752;11.348;2023-03-01T01:53:06;22.75;;;11.25;;
70303;SDS011;57712;48.752;11.348;2023-03-01T01:55:45;22.42;;;10.93;;
70303;SDS011;57712;48.752;11.348;2023-03-01T01:58:17;23.30;;;11.13;;
70303;SDS011;57712;48.752;11.348;2023-03-01T02:00:47;21.87;;;10.63;;
70303;SDS011;57712;48.752;11.348;2023-03-01T02:03:16;23.25;;;11.32;;
70303;SDS011;57712;48.752;11.348;2023-03-01T02:05:53;24.85;;;11.63;;
70303;SDS011;57712;48.752;11.348;2023-03-01T02:08:23;22.42;;;10.90;;
70303;SDS011;57712;48.752;11.348;2023-03-01T02:10:53;22.80;;;11.40;;
70303;SDS011;57712;48.752;11.348;2023-03-01T02:13:21;24.87;;;11.73;;
70303;SDS011;57712;48.752;11.348;2023-03-01T02:15:48;25.02;;;11.60;;
70303;SDS011;57712;48.752;11.348;2023-03-01T02:18:16;26.33;;;13.00;;
70303;SDS011;57712;48.752;11.348;2023-03-01T02:23:20;23.85;;;12.15;;
70303;SDS011;57712;48.752;11.348;2023-03-01T02:25:47;23.57;;;11.50;;
70303;SDS011;57712;48.752;11.348;2023-03-01T02:28:24;24.35;;;11.98;;
70303;SDS011;57712;48.752;11.348;2023-03-01T02:30:52;22.15;;;11.05;;
70303;SDS011;57712;48.752;11.348;2023-03-01T02:33:38;25.52;;;11.90;;
70303;SDS011;57712;48.752;11.348;2023-03-01T02:36:07;27.02;;;12.13;;
70303;SDS011;57712;48.752;11.348;2023-03-01T02:38:37;23.43;;;11.17;;
70303;SDS011;57712;48.752;11.348;2023-03-01T02:41:04;22.85;;;11.65;;
70303;SDS011;57712;48.752;11.348;2023-03-01T02:43:33;24.50;;;12.70;;
70303;SDS011;57712;48.752;11.348;2023-03-01T02:46:07;22.33;;;10.98;;
70303;SDS011;57712;48.752;11.348;2023-03-01T02:48:43;23.88;;;10.95;;
70303;SDS011;57712;48.752;11.348;2023-03-01T02:51:19;24.50;;;11.57;;
70303;SDS011;57712;48.752;11.348;2023-03-01T02:56:52;27.30;;;11.70;;
70303;SDS011;57712;48.752;11.348;2023-03-01T02:59:22;24.52;;;11.05;;
70303;SDS011;57712;48.752;11.348;2023-03-01T03:01:53;23.58;;;11.20;;
70303;SDS011;57712;48.752;11.348;2023-03-01T03:04:19;25.10;;;11.87;;
70303;SDS011;57712;48.752;11.348;2023-03-01T03:06:47;26.38;;;12.02;;
70303;SDS011;57712;48.752;11.348;2023-03-01T03:09:16;22.95;;;11.20;;
70303;SDS011;57712;48.752;11.348;2023-03-01T03:11:43;25.83;;;11.80;;
70303;SDS011;57712;48.752;11.348;2023-03-01T03:14:10;22.88;;;12.32;;
70303;SDS011;57712;48.752;11.348;2023-03-01T03:16:40;23.83;;;11.90;;
70303;SDS011;57712;48.752;11.348;2023-03-01T03:19:07;23.45;;;11.88;;
70303;SDS011;57712;48.752;11.348;2023-03-01T03:21:34;27.15;;;12.73;;
70303;SDS011;57712;48.752;11.348;2023-03-01T03:24:01;25.45;;;12.13;;
70303;SDS011;57712;48.752;11.348;2023-03-01T03:26:28;24.95;;;12.02;;
70303;SDS011;57712;48.752;11.348;2023-03-01T03:28:55;22.93;;;12.27;;
70303;SDS011;57712;48.752;11.348;2023-03-01T03:31:22;25.48;;;11.63;;
70303;SDS011;57712;48.752;11.348;2023-03-01T03:33:49;26.00;;;12.60;;
70303;SDS011;57712;48.752;11.348;2023-03-01T03:36:20;26.00;;;12.10;;
70303;SDS011;57712;48.752;11.348;2023-03-01T03:38:49;23.42;;;11.48;;
70303;SDS011;57712;48.752;11.348;2023-03-01T03:41:17;25.83;;;11.63;;
70303;SDS011;57712;48.752;11.348;2023-03-01T03:43:44;23.63;;;11.35;;
70303;SDS011;57712;48.752;11.348;2023-03-01T03:46:11;25.85;;;11.73;;
70303;SDS011;57712;48.752;11.348;2023-03-01T03:48:42;25.83;;;11.50;;
70303;SDS011;57712;48.752;11.348;2023-03-01T03:51:11;26.02;;;11.50;;
70303;SDS011;57712;48.752;11.348;2023-03-01T03:53:39;26.03;;;11.90;;
70303;SDS011;57712;48.752;11.348;2023-03-01T03:56:06;28.25;;;13.15;;
70303;SDS011;57712;48.752;11.348;2023-03-01T03:58:32;24.95;;;11.35;;
70303;SDS011;57712;48.752;11.348;2023-03-01T04:00:59;26.50;;;12.13;;
70303;SDS011;57712;48.752;11.348;2023-03-01T04:03:28;25.50;;;12.30;;
70303;SDS011;57712;48.752;11.348;2023-03-01T04:05:57;28.17;;;12.93;;
70303;SDS011;57712;48.752;11.348;2023-03-01T04:08:25;23.88;;;12.70;;
70303;SDS011;57712;48.752;11.348;2023-03-01T04:10:52;28.23;;;12.52;;
70303;SDS011;57712;48.752;11.348;2023-03-01T04:13:24;23.42;;;11.52;;
70303;SDS011;57712;48.752;11.348;2023-03-01T04:15:52;26.00;;;12.32;;
70303;SDS011;57712;48.752;11.348;2023-03-01T04:18:20;26.07;;;12.10;;
70303;SDS011;57712;48.752;11.348;2023-03-01T04:20:48;26.52;;;11.77;;
70303;SDS011;57712;48.752;11.348;2023-03-01T04:23:16;25.13;;;12.00;;
70303;SDS011;57712;48.752;11.348;2023-03-01T04:25:47;29.02;;;12.85;;
70303;SDS011;57712;48.752;11.348;2023-03-01T04:28:23;29.92;;;12.98;;
70303;SDS011;57712;48.752;11.348;2023-03-01T04:30:52;26.10;;;12.03;;
70303;SDS011;57712;48.752;11.348;2023-03-01T04:33:22;53.85;;;19.20;;
70303;SDS011;57712;48.752;11.348;2023-03-01T04:35:50;43.83;;;16.08;;
70303;SDS011;57712;48.752;11.348;2023-03-01T04:38:17;36.05;;;14.00;;
70303;SDS011;57712;48.752;11.348;2023-03-01T04:40:44;30.27;;;13.00;;
70303;SDS011;57712;48.752;11.348;2023-03-01T04:43:12;26.93;;;11.63;;
70303;SDS011;57712;48.752;11.348;2023-03-01T04:45:41;27.15;;;12.65;;
70303;SDS011;57712;48.752;11.348;2023-03-01T04:48:08;28.02;;;12.85;;
70303;SDS011;57712;48.752;11.348;2023-03-01T04:50:35;27.92;;;11.93;;
70303;SDS011;57712;48.752;11.348;2023-03-01T04:53:02;26.33;;;12.23;;
70303;SDS011;57712;48.752;11.348;2023-03-01T04:55:29;26.10;;;11.67;;
70303;SDS011;57712;48.752;11.348;2023-03-01T04:57:55;26.45;;;12.07;;
70303;SDS011;57712;48.752;11.348;2023-03-01T05:00:22;25.48;;;12.13;;
70303;SDS011;57712;48.752;11.348;2023-03-01T05:02:50;24.38;;;11.18;;
70303;SDS011;57712;48.752;11.348;2023-03-01T05:05:20;26.98;;;11.95;;
70303;SDS011;57712;48.752;11.348;2023-03-01T05:07:57;27.17;;;12.13;;
70303;SDS011;57712;48.752;11.348;2023-03-01T05:10:26;25.80;;;12.65;;
70303;SDS011;57712;48.752;11.348;2023-03-01T05:12:55;26.98;;;13.43;;
70303;SDS011;57712;48.752;11.348;2023-03-01T05:15:26;25.90;;;11.98;;
70303;SDS011;57712;48.752;11.348;2023-03-01T05:17:54;25.27;;;12.23;;
70303;SDS011;57712;48.752;11.348;2023-03-01T05:20:28;29.03;;;12.57;;
70303;SDS011;57712;48.752;11.348;2023-03-01T05:22:57;27.02;;;11.85;;
70303;SDS011;57712;48.752;11.348;2023-03-01T05:25:26;25.63;;;11.98;;
70303;SDS011;57712;48.752;11.348;2023-03-01T05:27:53;26.20;;;12.45;;
70303;SDS011;57712;48.752;11.348;2023-03-01T05:30:20;26.83;;;11.98;;
70303;SDS011;57712;48.752;11.348;2023-03-01T05:32:49;26.53;;;12.30;;
70303;SDS011;57712;48.752;11.348;2023-03-01T05:35:22;30.08;;;13.25;;
70303;SDS011;57712;48.752;11.348;2023-03-01T05:37:49;27.50;;;12.45;;
70303;SDS011;57712;48.752;11.348;2023-03-01T05:40:20;26.88;;;11.73;;
70303;SDS011;57712;48.752;11.348;2023-03-01T05:42:49;28.10;;;12.90;;
70303;SDS011;57712;48.752;11.348;2023-03-01T05:45:18;27.37;;;11.93;;
70303;SDS011;57712;48.752;11.348;2023-03-01T05:47:45;30.95;;;12.98;;
70303;SDS011;57712;48.752;11.348;2023-03-01T05:50:15;29.25;;;12.75;;
70303;SDS011;57712;48.752;11.348;2023-03-01T05:52:50;27.15;;;12.32;;
70303;SDS011;57712;48.752;11.348;2023-03-01T05:55:19;27.05;;;12.95;;
70303;SDS011;57712;48.752;11.348;2023-03-01T05:57:46;28.23;;;12.87;;
70303;SDS011;57712;48.752;11.348;2023-03-01T06:00:14;27.75;;;12.60;;
70303;SDS011;57712;48.752;11.348;2023-03-01T06:02:43;26.80;;;12.45;;
70303;SDS011;57712;48.752;11.348;2023-03-01T06:05:10;27.23;;;12.32;;
70303;SDS011;57712;48.752;11.348;2023-03-01T06:07:39;28.05;;;12.50;;
70303;SDS011;57712;48.752;11.348;2023-03-01T06:10:06;30.30;;;12.90;;
70303;SDS011;57712;48.752;11.348;2023-03-01T06:12:34;29.25;;;12.55;;
70303;SDS011;57712;48.752;11.348;2023-03-01T06:15:03;29.13;;;12.93;;
70303;SDS011;57712;48.752;11.348;2023-03-01T06:17:31;31.55;;;13.02;;
70303;SDS011;57712;48.752;11.348;2023-03-01T06:20:04;28.83;;;13.40;;
70303;SDS011;57712;48.752;11.348;2023-03-01T06:22:33;29.37;;;13.63;;
70303;SDS011;57712;48.752;11.348;2023-03-01T06:25:00;27.63;;;13.35;;
70303;SDS011;57712;48.752;11.348;2023-03-01T06:27:29;27.23;;;13.02;;
70303;SDS011;57712;48.752;11.348;2023-03-01T06:29:56;27.20;;;12.43;;
70303;SDS011;57712;48.752;11.348;2023-03-01T06:32:22;29.27;;;13.55;;
70303;SDS011;57712;48.752;11.348;2023-03-01T06:34:49;28.60;;;12.90;;
70303;SDS011;57712;48.752;11.348;2023-03-01T06:37:16;29.20;;;15.43;;
70303;SDS011;57712;48.752;11.348;2023-03-01T06:39:44;29.77;;;13.65;;
70303;SDS011;57712;48.752;11.348;2023-03-01T06:42:11;34.08;;;15.07;;
70303;SDS011;57712;48.752;11.348;2023-03-01T06:44:38;32.55;;;13.25;;
70303;SDS011;57712;48.752;11.348;2023-03-01T06:47:05;29.27;;;13.33;;
70303;SDS011;57712;48.752;11.348;2023-03-01T06:49:31;26.30;;;12.25;;
70303;SDS011;57712;48.752;11.348;2023-03-01T06:51:58;28.55;;;12.90;;
70303;SDS011;57712;48.752;11.348;2023-03-01T06:54:24;30.92;;;13.00;;
70303;SDS011;57712;48.752;11.348;2023-03-01T06:56:51;30.40;;;13.13;;
70303;SDS011;57712;48.752;11.348;2023-03-01T06:59:18;45.33;;;22.27;;
70303;SDS011;57712;48.752;11.348;2023-03-01T07:01:45;30.83;;;14.07;;
70303;SDS011;57712;48.752;11.348;2023-03-01T07:04:12;28.10;;;13.73;;
70303;SDS011;57712;48.752;11.348;2023-03-01T07:06:40;27.77;;;12.38;;
70303;SDS011;57712;48.752;11.348;2023-03-01T07:09:07;29.33;;;13.73;;
70303;SDS011;57712;48.752;11.348;2023-03-01T07:11:34;45.57;;;19.40;;
70303;SDS011;57712;48.752;11.348;2023-03-01T07:14:00;50.97;;;22.15;;
70303;SDS011;57712;48.752;11.348;2023-03-01T07:16:27;36.08;;;16.33;;
70303;SDS011;57712;48.752;11.348;2023-03-01T07:18:53;32.38;;;14.43;;
70303;SDS011;57712;48.752;11.348;2023-03-01T07:21:20;28.05;;;14.07;;
70303;SDS011;57712;48.752;11.348;2023-03-01T07:23:48;28.63;;;13.93;;
70303;SDS011;57712;48.752;11.348;2023-03-01T07:26:15;37.08;;;17.35;;
70303;SDS011;57712;48.752;11.348;2023-03-01T07:28:41;30.58;;;13.90;;
70303;SDS011;57712;48.752;11.348;2023-03-01T07:31:08;27.92;;;13.20;;
70303;SDS011;57712;48.752;11.348;2023-03-01T07:33:34;31.08;;;12.85;;
70303;SDS011;57712;48.752;11.348;2023-03-01T07:36:01;27.83;;;13.23;;
70303;SDS011;57712;48.752;11.348;2023-03-01T07:38:30;27.50;;;12.35;;
70303;SDS011;57712;48.752;11.348;2023-03-01T07:40:57;28.05;;;14.05;;
70303;SDS011;57712;48.752;11.348;2023-03-01T07:43:25;28.73;;;14.77;;
70303;SDS011;57712;48.752;11.348;2023-03-01T07:45:52;30.00;;;16.45;;
70303;SDS011;57712;48.752;11.348;2023-03-01T07:48:19;28.10;;;14.50;;
70303;SDS011;57712;48.752;11.348;2023-03-01T07:50:45;27.10;;;14.10;;
70303;SDS011;57712;48.752;11.348;2023-03-01T07:53:12;26.58;;;13.32;;
70303;SDS011;57712;48.752;11.348;2023-03-01T07:55:39;29.63;;;12.43;;
70303;SDS011;57712;48.752;11.348;2023-03-01T07:58:05;26.40;;;11.30;;
70303;SDS011;57712;48.752;11.348;2023-03-01T08:00:32;26.40;;;12.23;;
70303;SDS011;57712;48.752;11.348;2023-03-01T08:02:59;27.63;;;11.98;;
70303;SDS011;57712;48.752;11.348;2023-03-01T08:05:27;24.10;;;12.38;;
70303;SDS011;57712;48.752;11.348;2023-03-01T08:07:54;25.70;;;12.30;;
70303;SDS011;57712;48.752;11.348;2023-03-01T08:10:21;22.58;;;11.15;;
70303;SDS011;57712;48.752;11.348;2023-03-01T08:12:50;23.07;;;12.83;;
70303;SDS011;57712;48.752;11.348;2023-03-01T08:15:17;23.23;;;11.68;;
70303;SDS011;57712;48.752;11.348;2023-03-01T08:17:45;25.02;;;12.27;;
70303;SDS011;57712;48.752;11.348;2023-03-01T08:20:11;25.95;;;12.73;;
70303;SDS011;57712;48.752;11.348;2023-03-01T08:22:39;23.65;;;11.77;;
70303;SDS011;57712;48.752;11.348;2023-03-01T08:25:05;24.43;;;11.80;;
70303;SDS011;57712;48.752;11.348;2023-03-01T08:27:32;24.25;;;11.48;;
70303;SDS011;57712;48.752;11.348;2023-03-01T08:29:58;25.73;;;12.43;;
70303;SDS011;57712;48.752;11.348;2023-03-01T08:32:25;24.67;;;11.55;;
70303;SDS011;57712;48.752;11.348;2023-03-01T08:34:52;25.40;;;12.10;;
70303;SDS011;57712;48.752;11.348;2023-03-01T08:37:18;23.83;;;12.30;;
70303;SDS011;57712;48.752;11.348;2023-03-01T08:39:46;22.55;;;12.23;;
70303;SDS011;57712;48.752;11.348;2023-03-01T08:42:13;24.55;;;12.20;;
70303;SDS011;57712;48.752;11.348;2023-03-01T08:44:39;24.48;;;11.98;;
70303;SDS011;57712;48.752;11.348;2023-03-01T08:47:06;22.60;;;11.70;;
70303;SDS011;57712;48.752;11.348;2023-03-01T08:49:32;25.03;;;13.10;;
70303;SDS011;57712;48.752;11.348;2023-03-01T08:51:59;24.60;;;11.90;;
70303;SDS011;57712;48.752;11.348;2023-03-01T08:54:25;26.48;;;11.95;;
70303;SDS011;57712;48.752;11.348;2023-03-01T08:56:52;24.02;;;12.55;;
70303;SDS011;57712;48.752;11.348;2023-03-01T08:59:18;23.50;;;11.20;;
70303;SDS011;57712;48.752;11.348;2023-03-01T09:01:45;20.50;;;10.23;;
70303;SDS011;57712;48.752;11.348;2023-03-01T09:04:12;23.85;;;11.25;;
70303;SDS011;57712;48.752;11.348;2023-03-01T09:06:40;23.17;;;12.10;;
70303;SDS011;57712;48.752;11.348;2023-03-01T09:09:07;22.50;;;11.00;;
70303;SDS011;57712;48.752;11.348;2023-03-01T09:11:41;22.42;;;11.25;;
70303;SDS011;57712;48.752;11.348;2023-03-01T09:14:09;22.90;;;10.73;;
70303;SDS011;57712;48.752;11.348;2023-03-01T09:16:36;22.48;;;10.90;;
70303;SDS011;57712;48.752;11.348;2023-03-01T09:19:03;21.50;;;11.25;;
70303;SDS011;57712;48.752;11.348;2023-03-01T09:21:30;20.80;;;10.80;;
70303;SDS011;57712;48.752;11.348;2023-03-01T09:24:06;21.15;;;10.73;;
70303;SDS011;57712;48.752;11.348;2023-03-01T09:26:39;22.17;;;10.60;;
70303;SDS011;57712;48.752;11.348;2023-03-01T09:29:06;22.05;;;10.48;;
70303;SDS011;57712;48.752;11.348;2023-03-01T09:31:33;21.27;;;10.60;;
70303;SDS011;57712;48.752;11.348;2023-03-01T09:33:59;23.75;;;10.55;;
70303;SDS011;57712;48.752;11.348;2023-03-01T09:36:26;22.58;;;11.25;;
70303;SDS011;57712;48.752;11.348;2023-03-01T09:38:52;25.33;;;11.60;;
70303;SDS011;57712;48.752;11.348;2023-03-01T09:41:24;22.88;;;10.57;;
70303;SDS011;57712;48.752;11.348;2023-03-01T09:44:03;21.13;;;10.43;;
70303;SDS011;57712;48.752;11.348;2023-03-01T09:46:49;20.88;;;10.55;;
70303;SDS011;57712;48.752;11.348;2023-03-01T09:49:18;20.63;;;10.10;;
70303;SDS011;57712;48.752;11.348;2023-03-01T09:54:54;21.42;;;11.32;;
70303;SDS011;57712;48.752;11.348;2023-03-01T09:57:30;19.90;;;10.23;;
70303;SDS011;57712;48.752;11.348;2023-03-01T10:03:26;19.25;;;10.27;;
70303;SDS011;57712;48.752;11.348;2023-03-01T10:08:58;20.92;;;10.07;;
70303;SDS011;57712;48.752;11.348;2023-03-01T10:11:46;19.63;;;10.52;;
70303;SDS011;57712;48.752;11.348;2023-03-01T10:14:24;21.13;;;10.45;;
70303;SDS011;57712;48.752;11.348;2023-03-01T10:16:56;19.83;;;11.02;;
70303;SDS011;57712;48.752;11.348;2023-03-01T10:22:16;20.50;;;10.60;;
70303;SDS011;57712;48.752;11.348;2023-03-01T10:24:58;22.73;;;11.50;;
70303;SDS011;57712;48.752;11.348;2023-03-01T10:27:34;22.83;;;11.48;;
70303;SDS011;57712;48.752;11.348;2023-03-01T10:32:54;21.37;;;11.07;;
70303;SDS011;57712;48.752;11.348;2023-03-01T10:35:22;21.38;;;11.43;;
70303;SDS011;57712;48.752;11.348;2023-03-01T10:38:07;23.08;;;11.35;;
70303;SDS011;57712;48.752;11.348;2023-03-01T10:40:36;22.05;;;11.73;;
70303;SDS011;57712;48.752;11.348;2023-03-01T10:43:17;22.27;;;10.95;;
70303;SDS011;57712;48.752;11.348;2023-03-01T10:45:44;22.93;;;11.70;;
70303;SDS011;57712;48.752;11.348;2023-03-01T10:48:24;21.25;;;11.00;;
70303;SDS011;57712;48.752;11.348;2023-03-01T10:53:31;20.60;;;10.88;;
70303;SDS011;57712;48.752;11.348;2023-03-01T10:56:10;21.55;;;11.15;;
70303;SDS011;57712;48.752;11.348;2023-03-01T10:58:56;20.27;;;10.80;;
70303;SDS011;57712;48.752;11.348;2023-03-01T11:01:26;19.20;;;10.30;;
70303;SDS011;57712;48.752;11.348;2023-03-01T11:06:31;18.30;;;10.50;;
70303;SDS011;57712;48.752;11.348;2023-03-01T11:09:13;18.83;;;10.75;;
70303;SDS011;57712;48.752;11.348;2023-03-01T11:11:54;19.93;;;10.83;;
70303;SDS011;57712;48.752;11.348;2023-03-01T11:14:23;19.30;;;10.30;;
70303;SDS011;57712;48.752;11.348;2023-03-01T11:17:03;19.65;;;10.35;;
70303;SDS011;57712;48.752;11.348;2023-03-01T11:19:43;19.98;;;10.55;;
70303;SDS011;57712;48.752;11.348;2023-03-01T11:22:28;20.50;;;9.98;;
70303;SDS011;57712;48.752;11.348;2023-03-01T11:24:55;18.27;;;9.93;;
70303;SDS011;57712;48.752;11.348;2023-03-01T11:27:40;18.88;;;10.15;;
70303;SDS011;57712;48.752;11.348;2023-03-01T11:32:50;19.17;;;9.90;;
70303;SDS011;57712;48.752;11.348;2023-03-01T11:35:26;18.25;;;10.45;;
70303;SDS011;57712;48.752;11.348;2023-03-01T11:40:29;16.55;;;9.60;;
70303;SDS011;57712;48.752;11.348;2023-03-01T11:57:11;18.73;;;10.60;;
70303;SDS011;57712;48.752;11.348;2023-03-01T12:00:17;17.85;;;9.82;;
70303;SDS011;57712;48.752;11.348;2023-03-01T12:08:17;16.50;;;9.75;;
70303;SDS011;57712;48.752;11.348;2023-03-01T12:10:53;18.10;;;10.27;;
70303;SDS011;57712;48.752;11.348;2023-03-01T12:13:38;20.92;;;11.57;;
70303;SDS011;57712;48.752;11.348;2023-03-01T12:19:08;18.97;;;10.03;;
70303;SDS011;57712;48.752;11.348;2023-03-01T12:30:42;17.00;;;9.20;;
70303;SDS011;57712;48.752;11.348;2023-03-01T12:39:15;17.08;;;9.68;;
70303;SDS011;57712;48.752;11.348;2023-03-01T12:41:47;15.57;;;9.23;;
70303;SDS011;57712;48.752;11.348;2023-03-01T12:50:24;16.23;;;9.15;;
70303;SDS011;57712;48.752;11.348;2023-03-01T12:52:58;16.33;;;9.73;;
70303;SDS011;57712;48.752;11.348;2023-03-01T12:58:21;15.85;;;9.10;;
70303;SDS011;57712;48.752;11.348;2023-03-01T13:09:12;17.17;;;8.80;;
70303;SDS011;57712;48.752;11.348;2023-03-01T13:12:01;16.38;;;9.43;;
70303;SDS011;57712;48.752;11.348;2023-03-01T13:14:36;15.10;;;8.70;;
70303;SDS011;57712;48.752;11.348;2023-03-01T13:17:29;17.92;;;9.05;;
70303;SDS011;57712;48.752;11.348;2023-03-01T13:19:57;15.02;;;9.40;;
70303;SDS011;57712;48.752;11.348;2023-03-01T13:22:25;16.70;;;10.05;;
70303;SDS011;57712;48.752;11.348;2023-03-01T13:25:00;17.65;;;10.40;;
70303;SDS011;57712;48.752;11.348;2023-03-01T13:27:37;16.87;;;9.70;;
70303;SDS011;57712;48.752;11.348;2023-03-01T13:30:04;15.95;;;9.88;;
70303;SDS011;57712;48.752;11.348;2023-03-01T13:32:50;17.30;;;9.80;;
70303;SDS011;57712;48.752;11.348;2023-03-01T13:37:44;16.35;;;9.82;;
70303;SDS011;57712;48.752;11.348;2023-03-01T13:42:45;16.10;;;9.57;;
70303;SDS011;57712;48.752;11.348;2023-03-01T13:45:33;19.48;;;9.70;;
70303;SDS011;57712;48.752;11.348;2023-03-01T13:48:10;17.58;;;9.32;;
70303;SDS011;57712;48.752;11.348;2023-03-01T13:50:49;17.02;;;9.60;;
70303;SDS011;57712;48.752;11.348;2023-03-01T13:53:19;17.57;;;9.03;;
70303;SDS011;57712;48.752;11.348;2023-03-01T13:55:51;15.63;;;9.05;;
70303;SDS011;57712;48.752;11.348;2023-03-01T13:58:25;15.85;;;9.40;;
70303;SDS011;57712;48.752;11.348;2023-03-01T14:00:56;15.70;;;8.77;;
70303;SDS011;57712;48.752;11.348;2023-03-01T14:03:39;17.98;;;9.02;;
70303;SDS011;57712;48.752;11.348;2023-03-01T14:06:08;17.50;;;9.87;;
70303;SDS011;57712;48.752;11.348;2023-03-01T14:08:43;19.67;;;9.50;;
70303;SDS011;57712;48.752;11.348;2023-03-01T14:16:49;17.65;;;10.02;;
70303;SDS011;57712;48.752;11.348;2023-03-01T14:19:25;19.50;;;10.40;;
70303;SDS011;57712;48.752;11.348;2023-03-01T14:24:51;19.45;;;10.90;;
70303;SDS011;57712;48.752;11.348;2023-03-01T14:27:20;21.40;;;10.75;;
70303;SDS011;57712;48.752;11.348;2023-03-01T14:30:03;19.33;;;10.52;;
70303;SDS011;57712;48.752;11.348;2023-03-01T14:32:38;21.20;;;11.73;;
70303;SDS011;57712;48.752;11.348;2023-03-01T14:35:19;19.65;;;10.48;;
70303;SDS011;57712;48.752;11.348;2023-03-01T14:37:50;20.42;;;10.38;;
70303;SDS011;57712;48.752;11.348;2023-03-01T14:40:24;18.48;;;9.93;;
70303;SDS011;57712;48.752;11.348;2023-03-01T14:42:59;19.20;;;10.68;;
70303;SDS011;57712;48.752;11.348;2023-03-01T14:45:28;17.10;;;9.73;;
70303;SDS011;57712;48.752;11.348;2023-03-01T14:48:00;19.67;;;11.02;;
70303;SDS011;57712;48.752;11.348;2023-03-01T14:50:34;24.08;;;12.50;;
70303;SDS011;57712;48.752;11.348;2023-03-01T14:53:06;23.25;;;12.70;;
70303;SDS011;57712;48.752;11.348;2023-03-01T14:55:41;20.13;;;11.15;;
70303;SDS011;57712;48.752;11.348;2023-03-01T14:58:15;18.93;;;10.53;;
70303;SDS011;57712;48.752;11.348;2023-03-01T15:00:47;19.95;;;10.35;;
70303;SDS011;57712;48.752;11.348;2023-03-01T15:03:41;21.50;;;11.63;;
70303;SDS011;57712;48.752;11.348;2023-03-01T15:06:17;20.05;;;10.32;;
70303;SDS011;57712;48.752;11.348;2023-03-01T15:08:49;20.30;;;12.23;;
70303;SDS011;57712;48.752;11.348;2023-03-01T15:11:23;21.20;;;10.90;;
70303;SDS011;57712;48.752;11.348;2023-03-01T15:13:54;20.92;;;11.55;;
70303;SDS011;57712;48.752;11.348;2023-03-01T15:16:23;19.52;;;10.40;;
70303;SDS011;57712;48.752;11.348;2023-03-01T15:18:53;19.45;;;10.98;;
70303;SDS011;57712;48.752;11.348;2023-03-01T15:21:25;19.13;;;10.45;;
70303;SDS011;57712;48.752;11.348;2023-03-01T15:26:59;21.08;;;11.57;;
70303;SDS011;57712;48.752;11.348;2023-03-01T15:29:33;18.58;;;9.65;;
70303;SDS011;57712;48.752;11.348;2023-03-01T15:32:22;19.05;;;10.90;;
70303;SDS011;57712;48.752;11.348;2023-03-01T15:34:50;22.40;;;10.43;;
70303;SDS011;57712;48.752;11.348;2023-03-01T15:40:23;19.65;;;10.30;;
70303;SDS011;57712;48.752;11.348;2023-03-01T15:42:58;19.70;;;9.68;;
70303;SDS011;57712;48.752;11.348;2023-03-01T15:45:26;19.10;;;10.45;;
70303;SDS011;57712;48.752;11.348;2023-03-01T15:47:58;18.58;;;10.32;;
70303;SDS011;57712;48.752;11.348;2023-03-01T15:50:32;20.73;;;10.00;;
70303;SDS011;57712;48.752;11.348;2023-03-01T15:53:06;20.08;;;10.00;;
70303;SDS011;57712;48.752;11.348;2023-03-01T15:55:37;21.02;;;9.98;;
70303;SDS011;57712;48.752;11.348;2023-03-01T15:58:13;20.02;;;9.82;;
70303;SDS011;57712;48.752;11.348;2023-03-01T16:00:40;22.25;;;12.23;;
70303;SDS011;57712;48.752;11.348;2023-03-01T16:03:25;25.20;;;12.40;;
70303;SDS011;57712;48.752;11.348;2023-03-01T16:05:52;23.33;;;12.27;;
70303;SDS011;57712;48.752;11.348;2023-03-01T16:08:19;26.85;;;13.98;;
70303;SDS011;57712;48.752;11.348;2023-03-01T16:10:49;23.85;;;13.57;;
70303;SDS011;57712;48.752;11.348;2023-03-01T16:13:17;23.50;;;13.45;;
70303;SDS011;57712;48.752;11.348;2023-03-01T16:15:44;21.70;;;12.13;;
70303;SDS011;57712;48.752;11.348;2023-03-01T16:18:10;25.95;;;13.65;;